createdAt,value
2023-03-02T00:04:19.092Z,8.40
2023-03-02T00:14:22.491Z,4.38
2023-03-02T00:24:24.481Z,5.72
2023-03-02T00:34:27.826Z,8.73
2023-03-02T00:44:29.895Z,8.30
2023-03-02T00:54:33.247Z,10.05
2023-03-02T01:04:38.053Z,10.35
2023-03-02T01:14:42.720Z,8.57
2023-03-02T01:24:44.739Z,12.90
2023-03-02T01:34:48.041Z,13.35
2023-03-02T01:44:52.208Z,10.43
2023-03-02T01:54:59.126Z,12.20
2023-03-02T02:05:02.934Z,16.13
2023-03-02T02:15:07.824Z,14.88
2023-03-02T02:25:22.442Z,17.60
2023-03-02T02:35:28.475Z,20.20
2023-03-02T02:45:30.760Z,13.50
2023-03-02T02:55:34.946Z,13.85
2023-03-02T03:05:36.870Z,16.83
2023-03-02T03:15:40.158Z,14.80
2023-03-02T03:25:42.096Z,17.10
2023-03-02T03:35:45.436Z,14.35
2023-03-02T03:45:47.493Z,13.18
2023-03-02T03:55:50.878Z,18.23
2023-03-02T04:05:53.049Z,17.40
2023-03-02T04:15:56.448Z,15.57
2023-03-02T04:25:58.432Z,17.48
2023-03-02T04:36:01.989Z,18.08
2023-03-02T04:46:04.523Z,18.58
2023-03-02T04:56:08.027Z,14.13
2023-03-02T05:06:10.575Z,14.80
2023-03-02T05:16:13.930Z,16.27
2023-03-02T05:26:15.927Z,17.23
2023-03-02T05:36:21.188Z,15.98
2023-03-02T05:46:24.393Z,18.65
2023-03-02T05:56:27.736Z,14.77
2023-03-02T06:06:30.066Z,15.82
2023-03-02T06:16:34.653Z,17.20
2023-03-02T06:26:36.816Z,19.45
2023-03-02T06:36:40.251Z,22.42
2023-03-02T06:46:42.980Z,25.27
2023-03-02T06:56:46.319Z,21.70
2023-03-02T07:06:48.334Z,25.73
2023-03-02T07:16:51.698Z,22.05
2023-03-02T07:26:53.646Z,25.75
2023-03-02T07:36:57.116Z,25.30
2023-03-02T07:46:59.117Z,23.55
2023-03-02T07:57:02.410Z,26.23
2023-03-02T08:07:04.657Z,34.50
2023-03-02T08:17:08.448Z,34.80
2023-03-02T08:27:13.050Z,41.28
2023-03-02T08:37:16.342Z,39.42
2023-03-02T08:47:18.375Z,31.40
2023-03-02T08:57:21.752Z,39.47
2023-03-02T09:07:23.673Z,37.05
2023-03-02T09:17:27.047Z,37.65
2023-03-02T09:27:29.100Z,39.25
2023-03-02T09:37:35.549Z,37.20
2023-03-02T09:47:46.906Z,36.22
2023-03-02T09:57:50.900Z,38.20
2023-03-02T10:07:53.530Z,32.92
2023-03-02T10:18:04.023Z,46.20
2023-03-02T10:28:16.208Z,36.20
2023-03-02T10:38:20.979Z,31.98
2023-03-02T10:48:23.065Z,47.63
2023-03-02T10:58:31.675Z,33.40
2023-03-02T11:08:33.697Z,31.88
2023-03-02T11:18:40.100Z,28.23
2023-03-02T11:28:49.246Z,30.13
2023-03-02T11:38:54.859Z,32.83
2023-03-02T11:48:59.798Z,28.45
2023-03-02T11:59:06.892Z,31.50
2023-03-02T12:09:25.858Z,26.40
2023-03-02T12:19:42.927Z,25.70
2023-03-02T12:29:47.966Z,21.90
2023-03-02T12:40:22.950Z,24.60
2023-03-02T12:50:26.997Z,31.20
2023-03-02T13:00:32.323Z,24.52
2023-03-02T13:10:36.597Z,20.38
2023-03-02T13:20:40.360Z,21.00
2023-03-02T13:30:42.433Z,19.02
2023-03-02T13:40:47.309Z,21.27
2023-03-02T13:50:55.330Z,15.70
2023-03-02T14:00:58.861Z,16.98
2023-03-02T14:11:02.608Z,15.57
2023-03-02T14:21:10.577Z,14.65
2023-03-02T14:31:12.689Z,15.18
2023-03-02T14:41:21.794Z,17.08
2023-03-02T14:51:26.940Z,10.20
2023-03-02T15:01:30.484Z,14.18
2023-03-02T15:11:36.074Z,9.80
2023-03-02T15:21:40.172Z,9.73
2023-03-02T15:31:42.221Z,10.43
2023-03-02T15:41:45.679Z,10.65
2023-03-02T15:51:47.721Z,12.65
2023-03-02T16:01:51.219Z,17.83
2023-03-02T16:11:53.267Z,11.18
2023-03-02T16:21:56.621Z,11.15
2023-03-02T16:42:18.513Z,18.30
2023-03-02T16:52:20.474Z,12.82
2023-03-02T17:02:23.994Z,11.70
2023-03-02T17:12:26.048Z,9.00
2023-03-02T17:22:29.588Z,12.48
2023-03-02T17:32:31.705Z,12.35
2023-03-02T17:42:35.250Z,18.45
2023-03-02T17:52:37.257Z,22.13
2023-03-02T18:02:40.690Z,28.95
2023-03-02T18:12:42.691Z,14.65
2023-03-02T18:22:46.301Z,10.40
2023-03-02T18:33:24.342Z,15.80
2023-03-02T18:43:29.086Z,15.40
2023-03-02T18:53:31.043Z,18.08
2023-03-02T19:03:35.461Z,14.48
2023-03-02T19:13:37.495Z,19.20
2023-03-02T19:23:41.248Z,12.32
2023-03-02T19:33:43.233Z,11.25
2023-03-02T19:43:46.886Z,16.38
2023-03-02T20:04:56.559Z,12.45
2023-03-02T20:14:58.531Z,11.40
2023-03-02T20:25:02.486Z,16.13
2023-03-02T20:35:07.726Z,17.20
2023-03-02T20:45:12.867Z,11.93
2023-03-02T20:55:15.284Z,12.40
2023-03-02T21:05:19.777Z,12.35
2023-03-02T21:15:21.979Z,10.55
2023-03-02T21:35:42.560Z,8.70
2023-03-02T21:45:44.817Z,10.98
2023-03-02T21:55:48.194Z,9.65
2023-03-02T22:05:50.145Z,11.25
2023-03-02T22:16:01.768Z,16.55
2023-03-02T22:26:15.190Z,8.82
2023-03-02T22:36:22.016Z,13.10
2023-03-02T22:46:26.098Z,17.45
2023-03-02T22:56:31.634Z,9.93
2023-03-02T23:06:37.846Z,13.25
2023-03-02T23:16:41.292Z,8.48
2023-03-02T23:26:43.301Z,10.70
2023-03-02T23:36:46.845Z,12.18
2023-03-02T23:46:49.124Z,15.10
2023-03-02T23:56:52.436Z,19.13
